Time;durP1;ratioP1;P1;durP2;ratioP2;P2;SDS_P1;SDS_P2;PMS_P1;PMS_P2;Temp;Humidity;BMP_temperature;BMP_pressure;BME280_temperature;BME280_humidity;BME280_pressure;Samples;Min_cycle;Max_cycle;Signal;HPM_P1;HPM_P2
2021/10/20 00:00:23;;;;;;;9.88;3.42;;;14.60;99.90;;;15.10;92.48;100908.00;5060311;28;20203;-68
2021/10/20 00:02:51;;;;;;;8.68;3.50;;;14.60;99.90;;;15.09;92.40;100897.53;5059529;28;20187;-69
2021/10/20 00:05:18;;;;;;;8.05;2.90;;;14.60;99.90;;;15.09;92.42;100897.53;5061751;28;20216;-71
2021/10/20 00:07:46;;;;;;;8.88;3.13;;;14.60;99.90;;;15.09;92.64;100900.16;5081945;28;20242;-71
2021/10/20 00:10:14;;;;;;;11.68;3.47;;;14.60;99.90;;;15.08;92.66;100891.44;5066801;28;20586;-70
2021/10/20 00:12:41;;;;;;;8.32;3.25;;;14.60;99.90;;;15.07;92.69;100892.34;5062840;28;20204;-69
2021/10/20 00:15:13;;;;;;;11.07;3.88;;;14.60;99.90;;;15.04;92.36;100895.13;5070170;28;20219;-68
2021/10/20 00:17:41;;;;;;;9.82;3.70;;;14.60;99.90;;;15.03;92.74;100896.09;5064258;28;20200;-68
2021/10/20 00:20:14;;;;;;;8.55;3.15;;;14.50;99.90;;;15.03;92.71;100889.97;5063814;28;20204;-68
2021/10/20 00:22:42;;;;;;;10.05;3.90;;;14.50;99.90;;;15.01;93.07;100884.78;5057682;28;20200;-67
2021/10/20 00:25:12;;;;;;;9.98;3.75;;;14.50;99.90;;;15.00;93.09;100885.69;5062292;28;20216;-68
2021/10/20 00:27:39;;;;;;;9.32;3.97;;;14.50;99.90;;;14.99;93.06;100876.09;5067274;28;20219;-68
2021/10/20 00:30:08;;;;;;;9.82;4.30;;;14.50;99.90;;;14.97;93.20;100875.31;5070556;28;20217;-67
2021/10/20 00:32:35;;;;;;;9.60;3.72;;;14.50;99.90;;;14.98;93.48;100874.41;5074124;28;20618;-68
2021/10/20 00:35:05;;;;;;;9.15;4.10;;;14.50;99.90;;;14.98;93.20;100863.84;5055067;28;20227;-68
2021/10/20 00:37:32;;;;;;;9.18;3.92;;;14.50;99.90;;;14.97;93.15;100859.50;5070110;28;20188;-68
2021/10/20 00:39:59;;;;;;;9.02;3.83;;;14.50;99.90;;;14.97;93.01;100851.59;5075980;28;20222;-69
2021/10/20 00:42:26;;;;;;;10.10;4.00;;;14.50;99.90;;;14.97;93.06;100841.03;5066888;28;20242;-70
2021/10/20 00:44:56;;;;;;;10.25;4.18;;;14.50;99.90;;;14.97;93.01;100853.34;5079348;28;20217;-68
2021/10/20 00:47:26;;;;;;;10.98;4.47;;;14.40;99.90;;;14.96;93.39;100843.75;5055924;28;20815;-68
2021/10/20 00:49:54;;;;;;;11.65;4.35;;;14.40;99.90;;;14.94;93.57;100835.94;5053352;28;20232;-68
2021/10/20 00:52:26;;;;;;;12.43;4.70;;;14.40;99.90;;;14.94;93.49;100840.34;5071722;28;20203;-69
2021/10/20 00:54:56;;;;;;;12.02;5.13;;;14.50;99.90;;;14.92;93.35;100832.53;5059063;28;20211;-68
2021/10/20 00:57:26;;;;;;;11.02;4.70;;;14.40;99.90;;;14.92;93.26;100831.66;5064718;28;20207;-68
2021/10/20 00:59:55;;;;;;;12.60;5.13;;;14.40;99.90;;;14.91;93.33;100824.72;5068560;28;20192;-68
2021/10/20 01:02:23;;;;;;;10.40;4.53;;;14.40;99.90;;;14.92;93.69;100818.50;5068822;28;20200;-68
2021/10/20 01:04:50;;;;;;;11.23;4.80;;;14.40;99.90;;;14.91;93.79;100812.41;5057172;28;20293;-72
2021/10/20 01:07:18;;;;;;;11.75;4.85;;;14.40;99.90;;;14.91;93.48;100804.50;5057860;28;20227;-71
2021/10/20 01:09:47;;;;;;;11.77;5.28;;;14.40;99.90;;;14.91;93.46;100804.50;5066345;28;20809;-71
2021/10/20 01:12:16;;;;;;;12.07;4.90;;;14.40;99.90;;;14.89;93.58;100806.34;5058036;28;20204;-70
2021/10/20 01:14:44;;;;;;;12.75;5.00;;;14.40;99.90;;;14.88;93.72;100804.66;5070440;28;20226;-71
2021/10/20 01:17:11;;;;;;;12.48;4.82;;;14.40;99.90;;;14.88;93.51;100799.38;5073031;28;20191;-71
2021/10/20 01:19:42;;;;;;;10.65;5.10;;;14.40;99.90;;;14.87;93.51;100786.25;5073845;28;20266;-71
2021/10/20 01:22:11;;;;;;;13.02;5.32;;;14.40;99.90;;;14.88;93.89;100794.13;5072274;28;20786;-68
2021/10/20 01:24:38;;;;;;;12.13;5.07;;;14.40;99.90;;;14.87;93.41;100781.84;5057545;28;20215;-70
2021/10/20 01:27:06;;;;;;;12.90;5.38;;;14.40;99.90;;;14.87;93.50;100789.75;5069045;28;20216;-70
2021/10/20 01:29:33;;;;;;;13.65;6.05;;;14.40;99.90;;;14.88;93.46;100788.00;5064841;28;20193;-69
2021/10/20 01:32:05;;;;;;;14.43;6.43;;;14.40;99.90;;;14.86;93.42;100780.16;5068386;28;20248;-69
2021/10/20 01:34:32;;;;;;;14.70;6.00;;;14.40;99.90;;;14.85;93.26;100783.72;5073960;28;20338;-71
2021/10/20 01:37:02;;;;;;;13.82;6.18;;;14.30;99.90;;;14.85;93.35;100772.34;5064138;28;20207;-68
2021/10/20 01:39:31;;;;;;;13.48;6.93;;;14.30;99.90;;;14.85;93.27;100769.72;5062966;28;20285;-70
2021/10/20 01:41:57;;;;;;;13.57;6.60;;;14.30;99.90;;;14.82;93.31;100765.44;5064323;28;20197;-68
2021/10/20 01:44:24;;;;;;;12.63;6.45;;;14.30;99.90;;;14.83;93.57;100769.78;5072028;28;20200;-70
2021/10/20 01:46:51;;;;;;;12.65;6.20;;;14.30;99.90;;;14.84;93.73;100760.09;5073326;28;20204;-70
2021/10/20 01:49:18;;;;;;;14.23;6.57;;;14.30;99.90;;;14.81;93.61;100750.56;5058024;28;20269;-70
2021/10/20 01:51:45;;;;;;;12.98;6.63;;;14.30;99.90;;;14.82;93.55;100751.41;5071672;28;20599;-70
2021/10/20 01:54:14;;;;;;;16.73;6.93;;;14.30;99.90;;;14.82;93.40;100751.41;5063201;28;20266;-70
2021/10/20 01:56:42;;;;;;;17.98;7.13;;;14.30;99.90;;;14.82;93.24;100746.13;5062437;28;20215;-71
2021/10/20 01:59:09;;;;;;;14.82;6.82;;;14.30;99.90;;;14.84;93.30;100741.63;5064818;28;20200;-70
2021/10/20 02:01:36;;;;;;;14.52;6.82;;;14.30;99.90;;;14.84;93.33;100739.88;5071157;28;20196;-70
2021/10/20 02:04:09;;;;;;;13.75;6.93;;;14.30;99.90;;;14.83;93.15;100738.19;5074254;28;20277;-71
2021/10/20 02:06:36;;;;;;;14.90;6.93;;;14.30;99.90;;;14.84;93.36;100721.41;5056703;28;20276;-70
2021/10/20 02:09:05;;;;;;;14.85;7.47;;;14.30;99.90;;;14.83;93.06;100727.63;5080406;28;20193;-71
2021/10/20 02:11:32;;;;;;;15.43;7.88;;;14.30;99.90;;;14.82;93.07;100730.31;5075862;28;20891;-70
2021/10/20 02:14:00;;;;;;;16.70;7.95;;;14.30;99.90;;;14.82;93.21;100719.78;5077821;28;20229;-70
2021/10/20 02:16:27;;;;;;;17.00;8.18;;;14.30;99.90;;;14.81;92.83;100713.69;5067694;28;20250;-71
2021/10/20 02:18:54;;;;;;;16.75;7.70;;;14.30;99.90;;;14.80;92.81;100717.25;5051626;28;20196;-71
2021/10/20 02:21:21;;;;;;;15.85;8.35;;;14.30;99.90;;;14.79;93.05;100714.69;5071272;28;20192;-71
2021/10/20 02:23:48;;;;;;;16.35;8.13;;;14.30;99.90;;;14.78;92.88;100713.00;5064557;28;20209;-69
2021/10/20 02:26:15;;;;;;;17.23;8.43;;;14.20;99.90;;;14.78;93.05;100713.00;5075450;28;20200;-70
2021/10/20 02:28:41;;;;;;;15.85;7.70;;;14.20;99.90;;;14.76;93.18;100705.19;5073698;28;20220;-70
2021/10/20 02:31:09;;;;;;;17.83;8.00;;;14.20;99.90;;;14.75;92.79;100702.63;5057636;28;20189;-69
2021/10/20 02:33:36;;;;;;;18.17;7.95;;;14.20;99.90;;;14.75;92.77;100700.84;5069673;28;20224;-70
2021/10/20 02:36:04;;;;;;;20.20;8.82;;;14.20;99.90;;;14.74;92.70;100701.78;5062064;28;20188;-70
2021/10/20 02:38:31;;;;;;;16.48;8.13;;;14.20;99.90;;;14.73;92.67;100689.56;5059457;28;20250;-70
2021/10/20 02:40:57;;;;;;;17.30;8.05;;;14.20;99.90;;;14.72;92.54;100690.47;5073907;28;20183;-70
2021/10/20 02:43:24;;;;;;;17.10;8.55;;;14.20;99.90;;;14.70;92.93;100684.44;5072133;28;20242;-70
2021/10/20 02:45:51;;;;;;;16.10;7.97;;;14.20;99.90;;;14.70;92.57;100694.13;5070882;28;20272;-70
2021/10/20 02:48:19;;;;;;;17.00;8.35;;;14.20;99.90;;;14.67;92.76;100674.06;5073679;28;20270;-68
2021/10/20 02:50:46;;;;;;;17.20;7.22;;;14.10;99.90;;;14.67;92.73;100684.59;5067110;28;20188;-69
2021/10/20 02:53:12;;;;;;;19.65;8.30;;;14.10;99.90;;;14.67;92.70;100679.34;5076570;28;20674;-70
2021/10/20 02:55:40;;;;;;;15.27;7.22;;;14.10;99.90;;;14.66;92.60;100672.38;5071386;28;20196;-69
2021/10/20 02:58:06;;;;;;;16.25;7.68;;;14.10;99.90;;;14.65;92.33;100673.28;5057869;28;20598;-69
2021/10/20 03:00:33;;;;;;;16.33;7.63;;;14.10;99.90;;;14.64;92.31;100668.13;5057040;28;20204;-70
2021/10/20 03:03:00;;;;;;;14.93;7.63;;;14.10;99.90;;;14.63;92.47;100669.06;5063561;28;20192;-72
2021/10/20 03:05:28;;;;;;;19.02;8.32;;;14.10;99.90;;;14.61;92.58;100673.56;5061583;28;20228;-70
2021/10/20 03:07:56;;;;;;;17.73;8.50;;;14.10;99.90;;;14.61;92.58;100663.88;5086726;28;20223;-70
2021/10/20 03:10:23;;;;;;;16.50;7.47;;;14.00;99.90;;;14.60;92.40;100670.06;5059731;28;20196;-70
2021/10/20 03:12:50;;;;;;;17.52;7.65;;;14.10;99.90;;;14.58;92.33;100661.41;5065823;28;20187;-70
2021/10/20 03:15:17;;;;;;;15.85;7.72;;;14.10;99.90;;;14.57;92.39;100662.34;5060531;28;20218;-70
2021/10/20 03:17:44;;;;;;;16.52;7.05;;;14.10;99.90;;;14.56;92.37;100657.16;5067688;28;20878;-70
2021/10/20 03:20:11;;;;;;;17.83;7.80;;;14.00;99.90;;;14.55;92.27;100663.38;5061973;28;20187;-69
2021/10/20 03:22:41;;;;;;;16.13;7.47;;;14.00;99.90;;;14.55;91.96;100658.94;5056217;28;20570;-71
2021/10/20 03:25:11;;;;;;;14.63;7.40;;;14.00;99.90;;;14.55;92.13;100658.09;5061897;28;20204;-71
2021/10/20 03:27:43;;;;;;;17.98;7.53;;;14.00;99.90;;;14.53;92.00;100655.56;5061373;28;20697;-71
2021/10/20 03:30:12;;;;;;;15.80;7.00;;;14.00;99.90;;;14.53;91.88;100645.03;5052697;28;20200;-71
2021/10/20 03:32:39;;;;;;;16.65;7.53;;;14.00;99.90;;;14.53;92.02;100638.91;5058358;28;20203;-72
2021/10/20 03:35:07;;;;;;;15.18;7.13;;;14.00;99.90;;;14.53;92.13;100642.38;5060042;28;20228;-73
2021/10/20 03:37:34;;;;;;;15.13;7.22;;;14.00;99.90;;;14.53;92.00;100642.38;5056480;28;20196;-72
2021/10/20 03:40:03;;;;;;;15.90;7.20;;;14.00;99.90;;;14.52;91.71;100635.41;5067763;28;20951;-72
2021/10/20 03:42:30;;;;;;;14.88;7.18;;;14.00;99.90;;;14.53;91.66;100642.38;5069206;28;20191;-72
2021/10/20 03:44:58;;;;;;;15.90;6.93;;;14.00;99.90;;;14.53;91.78;100639.75;5073975;28;20212;-72
2021/10/20 03:47:26;;;;;;;14.10;6.88;;;14.00;99.90;;;14.54;91.47;100638.81;5071685;28;20215;-72
2021/10/20 03:49:54;;;;;;;15.07;6.80;;;14.00;99.90;;;14.53;91.79;100631.84;5054448;28;20670;-72
2021/10/20 03:52:21;;;;;;;14.90;7.03;;;14.00;99.90;;;14.53;91.38;100633.63;5061352;28;20680;-74
2021/10/20 03:54:48;;;;;;;15.73;7.00;;;14.00;99.90;;;14.54;91.47;100632.69;5058571;28;20268;-70
2021/10/20 03:57:17;;;;;;;13.13;6.78;;;14.00;99.90;;;14.54;91.35;100635.31;5078740;28;20187;-72
2021/10/20 03:59:44;;;;;;;15.15;6.93;;;14.00;99.90;;;14.55;91.33;100623.88;5070721;28;20277;-71
2021/10/20 04:02:13;;;;;;;12.45;6.25;;;14.00;99.90;;;14.54;91.16;100633.53;5070510;28;20207;-73
2021/10/20 04:04:40;;;;;;;13.98;6.68;;;14.00;99.90;;;14.55;91.05;100621.22;5054230;28;20219;-71
2021/10/20 04:07:07;;;;;;;14.02;6.80;;;14.00;99.90;;;14.53;91.02;100629.22;5065115;28;20603;-73
2021/10/20 04:09:34;;;;;;;12.98;5.93;;;14.00;99.90;;;14.53;91.20;100623.94;5073290;28;20682;-71
2021/10/20 04:12:00;;;;;;;12.48;6.53;;;14.00;99.90;;;14.53;91.10;100621.31;5057182;28;20694;-72
2021/10/20 04:14:29;;;;;;;14.02;6.65;;;14.00;99.90;;;14.51;90.95;100620.53;5085547;28;20204;-71
2021/10/20 04:16:55;;;;;;;15.25;7.00;;;14.00;99.90;;;14.53;90.74;100608.16;5060120;28;20288;-72
2021/10/20 04:19:22;;;;;;;13.27;5.95;;;14.00;99.90;;;14.52;90.95;100624.88;5053602;28;20184;-73
2021/10/20 04:21:49;;;;;;;12.82;6.53;;;14.00;99.90;;;14.53;90.92;100618.69;5060595;28;20250;-72
2021/10/20 04:24:16;;;;;;;14.70;6.50;;;14.00;99.90;;;14.54;90.73;100608.97;5082836;28;20235;-71
2021/10/20 04:26:42;;;;;;;13.88;6.80;;;14.00;99.90;;;14.52;90.77;100603.81;5065720;28;20196;-74
2021/10/20 04:29:09;;;;;;;13.18;6.72;;;14.00;99.90;;;14.51;90.73;100599.47;5063017;28;20269;-72
2021/10/20 04:31:37;;;;;;;13.43;6.15;;;14.00;99.90;;;14.52;90.39;100595.91;5068008;28;20185;-72
2021/10/20 04:34:04;;;;;;;12.50;6.43;;;14.00;99.90;;;14.50;90.27;100592.50;5061141;28;20225;-72
2021/10/20 04:36:31;;;;;;;13.38;5.93;;;14.00;99.90;;;14.51;90.44;100590.72;5078634;28;20196;-71
2021/10/20 04:38:57;;;;;;;15.05;6.53;;;14.00;99.90;;;14.52;90.39;100592.41;5086226;28;20535;-73
2021/10/20 04:41:26;;;;;;;12.35;5.95;;;14.00;99.90;;;14.53;90.44;100586.22;5068764;28;20764;-71
2021/10/20 04:43:52;;;;;;;14.52;6.40;;;14.00;99.90;;;14.53;90.08;100579.19;5071597;28;20277;-72
2021/10/20 04:46:20;;;;;;;12.80;6.00;;;14.00;99.90;;;14.51;89.89;100573.16;5067401;28;20196;-72
2021/10/20 04:48:48;;;;;;;13.60;6.07;;;14.00;99.90;;;14.51;89.84;100570.50;5056061;28;20220;-72
2021/10/20 04:51:15;;;;;;;14.15;6.57;;;14.00;99.90;;;14.51;90.00;100573.16;5064054;28;20291;-70
2021/10/20 04:53:41;;;;;;;13.70;6.20;;;13.90;99.90;;;14.49;89.84;100569.75;5063815;28;20529;-72
2021/10/20 04:56:08;;;;;;;12.82;6.10;;;14.00;99.90;;;14.49;89.79;100563.63;5064532;28;20188;-72
2021/10/20 04:58:35;;;;;;;13.35;6.00;;;13.90;99.90;;;14.48;89.87;100562.78;5067663;28;20199;-72
2021/10/20 05:01:01;;;;;;;13.20;6.63;;;13.90;99.90;;;14.47;89.54;100560.22;5063136;28;20193;-72
2021/10/20 05:03:29;;;;;;;13.63;6.13;;;13.90;99.90;;;14.46;89.68;100562.00;5058809;28;20197;-72
2021/10/20 05:05:57;;;;;;;14.23;6.28;;;13.90;99.90;;;14.46;89.81;100564.66;5082756;28;20564;-72
2021/10/20 05:08:23;;;;;;;11.82;5.53;;;13.90;99.90;;;14.47;89.61;100571.59;5072718;28;20266;-72
2021/10/20 05:10:50;;;;;;;12.68;5.43;;;13.90;99.90;;;14.45;89.44;100562.94;5053411;28;20196;-72
2021/10/20 05:13:17;;;;;;;13.32;6.15;;;13.90;99.90;;;14.45;89.49;100557.66;5056427;28;20207;-70
2021/10/20 05:15:44;;;;;;;12.23;5.53;;;13.90;99.90;;;14.44;89.18;100549.84;5062622;28;21180;-70
2021/10/20 05:18:11;;;;;;;12.55;5.65;;;13.90;99.90;;;14.43;89.34;100548.16;5055203;28;20667;-70
2021/10/20 05:20:38;;;;;;;13.45;5.90;;;13.90;99.90;;;14.41;89.18;100535.09;5057653;28;20184;-74
2021/10/20 05:23:09;;;;;;;17.40;5.75;;;13.90;99.90;;;14.41;89.25;100542.13;5059458;28;20600;-71
2021/10/20 05:25:38;;;;;;;16.50;5.63;;;13.90;99.90;;;14.41;89.27;100534.22;5058881;28;20717;-71
2021/10/20 05:28:05;;;;;;;14.52;5.65;;;13.90;99.90;;;14.40;89.14;100528.13;5068900;28;20374;-71
2021/10/20 05:30:32;;;;;;;11.80;5.25;;;13.90;99.90;;;14.42;88.99;100525.38;5059175;28;20665;-71
2021/10/20 05:32:59;;;;;;;13.63;5.57;;;13.80;99.90;;;14.41;88.98;100519.28;5063596;28;20227;-71
2021/10/20 05:35:27;;;;;;;13.50;5.40;;;13.90;99.90;;;14.42;88.70;100514.84;5060385;28;20698;-72
2021/10/20 05:37:54;;;;;;;11.70;5.07;;;13.90;99.90;;;14.41;88.83;100514.03;5059477;28;20535;-71
2021/10/20 05:40:24;;;;;;;11.50;5.25;;;13.90;99.90;;;14.41;88.43;100513.16;5061612;28;21774;-72
2021/10/20 05:42:52;;;;;;;12.57;5.95;;;13.90;99.90;;;14.41;88.41;100507.91;5060345;28;20200;-72
2021/10/20 05:45:19;;;;;;;11.45;5.38;;;13.90;99.90;;;14.41;88.38;100508.75;5054100;28;20638;-70
2021/10/20 05:47:48;;;;;;;13.70;5.18;;;13.90;99.90;;;14.41;88.05;100500.88;5053801;28;20191;-71
2021/10/20 05:50:15;;;;;;;11.98;5.40;;;13.90;99.90;;;14.41;88.05;100506.13;5079557;28;20189;-71
2021/10/20 05:52:43;;;;;;;12.90;5.40;;;13.90;99.90;;;14.42;88.01;100502.53;5055646;28;20661;-71
2021/10/20 05:55:10;;;;;;;12.75;4.97;;;13.90;99.90;;;14.41;87.97;100505.28;5069503;28;20219;-73
2021/10/20 05:57:40;;;;;;;11.43;5.13;;;13.90;99.90;;;14.40;87.60;100487.78;5067765;28;20685;-72
2021/10/20 06:00:11;;;;;;;14.68;5.28;;;13.90;99.90;;;14.40;87.57;100488.63;5058588;28;20581;-71
2021/10/20 06:02:39;;;;;;;11.40;5.13;;;13.80;99.90;;;14.40;87.82;100485.97;5067782;28;20249;-71
2021/10/20 06:05:07;;;;;;;12.80;5.05;;;13.90;99.90;;;14.42;87.25;100488.53;5076591;28;20331;-71
2021/10/20 06:07:40;;;;;;;11.90;4.63;;;13.90;99.90;;;14.42;87.24;100486.75;5067384;28;20231;-71
2021/10/20 06:10:07;;;;;;;11.63;5.07;;;13.90;99.90;;;14.42;87.44;100486.75;5073584;28;20199;-71
2021/10/20 06:12:34;;;;;;;9.48;4.30;;;13.90;99.90;;;14.42;87.41;100484.13;5071136;28;20203;-71
2021/10/20 06:15:04;;;;;;;13.02;4.95;;;13.90;99.90;;;14.41;87.03;100485.06;5076739;28;20207;-71
2021/10/20 06:17:31;;;;;;;10.75;4.45;;;13.90;99.90;;;14.43;86.92;100475.31;5069829;28;20203;-70
2021/10/20 06:19:58;;;;;;;10.27;4.53;;;13.90;99.90;;;14.41;86.94;100474.53;5060480;28;20207;-72
2021/10/20 06:22:24;;;;;;;13.13;4.68;;;13.90;99.90;;;14.42;86.55;100480.63;5070513;28;20243;-72
2021/10/20 06:24:51;;;;;;;12.02;5.20;;;13.90;99.90;;;14.42;86.67;100484.13;5061064;28;20269;-70
2021/10/20 06:27:18;;;;;;;11.55;4.78;;;13.90;99.90;;;14.43;86.37;100474.44;5058041;28;20701;-71
2021/10/20 06:29:45;;;;;;;10.05;4.45;;;13.90;99.90;;;14.43;86.68;100472.66;5064920;28;20634;-71
2021/10/20 06:32:13;;;;;;;10.95;4.90;;;13.90;99.90;;;14.45;86.05;100468.13;5071590;28;20202;-71
2021/10/20 06:34:40;;;;;;;10.43;4.68;;;13.90;99.90;;;14.47;86.16;100475.94;5065545;28;20997;-70
2021/10/20 06:37:06;;;;;;;11.35;4.68;;;13.90;99.90;;;14.46;86.08;100475.13;5061000;28;20188;-72
2021/10/20 06:39:33;;;;;;;11.80;4.78;;;14.00;99.90;;;14.46;85.86;100471.63;5078962;28;20199;-70
2021/10/20 06:42:00;;;;;;;12.45;4.68;;;14.00;99.90;;;14.46;86.09;100464.59;5064517;28;20199;-72
2021/10/20 06:44:27;;;;;;;12.18;4.95;;;14.00;99.90;;;14.46;85.96;100475.13;5079248;28;20211;-72
2021/10/20 06:46:56;;;;;;;12.00;4.75;;;14.00;99.90;;;14.45;85.65;100470.78;5080086;28;20187;-72
2021/10/20 06:49:24;;;;;;;13.10;4.93;;;14.00;99.90;;;14.47;85.63;100476.81;5063850;28;20211;-72
2021/10/20 06:51:51;;;;;;;11.05;4.57;;;14.00;99.90;;;14.47;85.62;100471.53;5060379;28;20192;-70
2021/10/20 06:54:20;;;;;;;10.30;4.35;;;14.00;99.90;;;14.47;85.67;100470.69;5069913;28;20204;-72
2021/10/20 06:56:49;;;;;;;9.82;3.75;;;14.00;99.90;;;14.48;85.38;100481.16;5066723;28;20196;-70
2021/10/20 06:59:17;;;;;;;10.18;4.50;;;14.00;99.90;;;14.47;85.34;100476.81;5070466;28;20195;-69
2021/10/20 07:01:44;;;;;;;9.70;4.15;;;14.00;99.90;;;14.48;85.14;100472.41;5066459;28;20198;-73
2021/10/20 07:04:11;;;;;;;12.95;4.70;;;14.00;99.90;;;14.50;85.25;100475.78;5065736;28;20299;-72
2021/10/20 07:06:40;;;;;;;9.15;4.20;;;14.00;99.90;;;14.51;85.09;100472.22;5065028;28;20297;-73
2021/10/20 07:09:08;;;;;;;11.15;4.70;;;14.00;99.90;;;14.50;85.21;100462.63;5060608;28;20304;-71
2021/10/20 07:11:35;;;;;;;11.18;4.63;;;14.10;99.90;;;14.51;85.17;100466.94;5067101;28;20200;-72
2021/10/20 07:14:02;;;;;;;10.32;4.40;;;14.10;99.90;;;14.51;84.99;100467.81;5070183;28;20258;-71
2021/10/20 07:16:35;;;;;;;13.38;4.28;;;14.00;99.90;;;14.52;85.15;100458.94;5061358;28;20211;-72
2021/10/20 07:19:05;;;;;;;10.90;3.70;;;14.10;99.90;;;14.52;84.75;100453.69;5065363;28;20205;-72
2021/10/20 07:21:32;;;;;;;10.13;4.20;;;14.10;99.90;;;14.52;84.88;100453.69;5065899;28;20192;-72
2021/10/20 07:24:00;;;;;;;9.82;4.05;;;14.10;99.90;;;14.53;84.68;100447.50;5061070;28;20212;-72
2021/10/20 07:26:27;;;;;;;10.98;4.20;;;14.10;99.90;;;14.53;84.44;100436.09;5056137;28;20206;-73
2021/10/20 07:28:54;;;;;;;9.73;4.30;;;14.10;99.90;;;14.54;84.36;100445.69;5061014;28;20222;-70
2021/10/20 07:31:21;;;;;;;9.38;4.07;;;14.10;99.90;;;14.56;84.33;100442.06;5059438;28;20196;-74
2021/10/20 07:33:48;;;;;;;8.60;3.65;;;14.10;99.90;;;14.60;84.13;100448.00;5058262;28;20286;-72
2021/10/20 07:36:15;;;;;;;12.50;3.95;;;14.10;99.90;;;14.62;83.84;100436.41;5062661;28;20204;-73
2021/10/20 07:38:41;;;;;;;9.38;3.53;;;14.20;99.90;;;14.67;83.61;100452.78;5067732;28;20196;-72
2021/10/20 07:41:09;;;;;;;8.68;3.60;;;14.20;99.90;;;14.73;83.56;100443.69;5054519;28;20196;-72
2021/10/20 07:43:36;;;;;;;13.70;4.40;;;14.30;99.90;;;14.77;83.60;100434.66;5060178;28;20215;-73
2021/10/20 07:46:03;;;;;;;11.38;3.67;;;14.30;99.90;;;14.79;83.29;100440.69;5061498;28;20188;-72
2021/10/20 07:48:30;;;;;;;9.35;3.80;;;14.40;99.90;;;14.82;83.39;100432.59;5062348;28;20184;-71
2021/10/20 07:50:56;;;;;;;11.57;3.88;;;14.40;99.90;;;14.84;83.06;100439.47;5063062;28;20196;-72
2021/10/20 07:53:23;;;;;;;9.75;3.33;;;14.40;99.90;;;14.87;82.80;100433.16;5067530;28;20196;-71
2021/10/20 07:55:50;;;;;;;11.73;3.90;;;14.50;99.90;;;14.90;82.52;100428.56;5063922;28;20196;-71
2021/10/20 07:58:18;;;;;;;9.15;4.00;;;14.50;99.90;;;14.92;82.29;100426.69;5063808;28;20193;-71
2021/10/20 08:00:45;;;;;;;10.00;3.63;;;14.60;99.90;;;14.98;82.12;100422.84;5060276;28;20200;-72
2021/10/20 08:03:12;;;;;;;11.27;3.80;;;14.60;99.90;;;15.02;82.05;100419.06;5058258;28;20196;-73
2021/10/20 08:05:39;;;;;;;10.38;3.45;;;14.70;99.90;;;15.09;82.06;100417.75;5080499;28;20203;-71
2021/10/20 08:08:09;;;;;;;9.82;3.80;;;14.70;99.90;;;15.16;81.79;100418.22;5072295;28;20196;-73
2021/10/20 08:10:40;;;;;;;9.35;4.10;;;14.80;99.90;;;15.26;81.43;100400.91;5072593;28;20216;-72
2021/10/20 08:13:07;;;;;;;17.42;8.15;;;14.90;99.90;;;15.34;81.35;100396.84;5064880;28;20199;-72
2021/10/20 08:15:35;;;;;;;12.48;4.30;;;15.00;99.90;;;15.43;80.82;100406.00;5068763;28;20298;-72
2021/10/20 08:18:03;;;;;;;10.18;3.50;;;15.10;99.90;;;15.50;80.47;100387.09;5072021;28;20198;-71
2021/10/20 08:20:34;;;;;;;10.75;3.38;;;15.20;99.90;;;15.59;79.98;100393.56;5062019;28;20643;-73
2021/10/20 08:23:04;;;;;;;8.63;3.20;;;15.30;99.90;;;15.65;79.30;100391.41;5072654;28;20199;-72
2021/10/20 08:25:34;;;;;;;7.82;3.45;;;15.40;99.90;;;15.69;78.83;100378.84;5054596;28;20231;-71
2021/10/20 08:28:01;;;;;;;10.48;3.72;;;15.40;99.90;;;15.73;78.44;100372.41;5064406;28;20214;-72
2021/10/20 08:30:29;;;;;;;8.38;3.33;;;15.40;99.90;;;15.79;78.11;100385.25;5058004;28;20779;-70
2021/10/20 08:32:58;;;;;;;9.38;3.33;;;15.50;99.90;;;15.85;77.42;100377.75;5072724;28;20206;-71
2021/10/20 08:35:25;;;;;;;8.05;3.30;;;15.60;99.90;;;15.92;77.18;100381.72;5062833;28;20215;-70
2021/10/20 08:37:56;;;;;;;8.73;2.80;;;15.60;99.90;;;16.00;76.75;100373.28;5071671;28;20665;-72
2021/10/20 08:40:26;;;;;;;8.57;2.92;;;15.80;99.90;;;16.07;76.88;100367.50;5050468;28;20195;-71
2021/10/20 08:42:54;;;;;;;8.98;3.70;;;15.90;99.90;;;16.14;76.22;100366.13;5058377;28;20209;-70
2021/10/20 08:45:21;;;;;;;9.13;3.53;;;16.00;99.90;;;16.22;75.92;100357.72;5060139;28;20209;-71
2021/10/20 08:47:52;;;;;;;8.88;3.20;;;16.00;99.90;;;16.28;75.91;100347.59;5055644;28;20205;-73
2021/10/20 08:50:23;;;;;;;8.05;2.90;;;16.10;99.90;;;16.31;75.44;100350.03;5059685;28;20321;-69
2021/10/20 08:52:52;;;;;;;10.88;3.08;;;16.10;99.90;;;16.33;75.37;100344.63;5057607;28;20215;-70
2021/10/20 08:55:21;;;;;;;8.70;3.20;;;16.10;99.90;;;16.33;74.57;100349.91;5053622;28;20212;-72
2021/10/20 08:57:50;;;;;;;8.05;3.13;;;16.10;99.90;;;16.34;74.86;100343.69;5067792;28;20242;-72
2021/10/20 09:00:19;;;;;;;10.80;3.38;;;16.10;99.90;;;16.33;74.44;100347.28;5061522;28;20246;-72
2021/10/20 09:02:47;;;;;;;22.70;11.90;;;16.10;99.90;;;16.31;74.64;100338.59;5068987;28;20204;-72
2021/10/20 09:05:17;;;;;;;9.43;3.90;;;16.10;99.90;;;16.30;74.52;100337.78;5063425;28;20935;-73
2021/10/20 09:07:47;;;;;;;8.57;3.60;;;16.00;99.90;;;16.31;74.34;100333.31;5069812;28;20207;-72
2021/10/20 09:10:15;;;;;;;10.18;3.20;;;16.10;99.90;;;16.30;73.93;100332.50;5059960;28;20256;-69
2021/10/20 09:12:43;;;;;;;8.27;2.67;;;16.10;99.90;;;16.31;73.97;100330.66;5066907;28;20211;-72
2021/10/20 09:15:17;;;;;;;8.27;3.30;;;16.00;99.90;;;16.33;73.75;100323.50;5069520;28;20205;-70
2021/10/20 09:17:48;;;;;;;10.15;3.22;;;16.10;99.90;;;16.37;73.69;100332.91;5069767;28;20959;-72
2021/10/20 09:20:23;;;;;;;8.40;2.95;;;16.10;99.90;;;16.40;73.49;100340.63;5065146;28;20185;-70
2021/10/20 09:23:06;;;;;;;9.52;3.30;;;16.20;99.90;;;16.43;73.18;100324.56;5060412;28;20690;-69
2021/10/20 09:25:41;;;;;;;8.25;2.88;;;16.20;99.90;;;16.43;72.86;100324.56;5066747;28;20208;-69
2021/10/20 09:28:11;;;;;;;8.20;2.92;;;16.20;99.90;;;16.44;72.92;100314.84;5065527;28;20570;-72
2021/10/20 09:30:40;;;;;;;9.07;3.08;;;16.20;99.90;;;16.42;72.91;100300.91;5059504;28;20239;-71
2021/10/20 09:33:09;;;;;;;12.73;3.50;;;16.20;99.90;;;16.41;73.18;100294.75;5064672;28;20188;-76
2021/10/20 09:35:37;;;;;;;11.40;3.80;;;16.10;99.90;;;16.39;72.84;100309.03;5058528;28;20693;-70
2021/10/20 09:38:07;;;;;;;11.73;4.35;;;16.00;99.90;;;16.37;73.16;100290.66;5052224;28;21177;-72
2021/10/20 09:40:38;;;;;;;11.18;3.40;;;16.00;99.90;;;16.36;73.11;100272.28;5057555;28;20203;-71
2021/10/20 09:43:07;;;;;;;9.25;3.25;;;15.90;99.90;;;16.35;72.92;100276.69;5061388;28;20200;-72
2021/10/20 09:45:38;;;;;;;9.25;3.08;;;16.00;99.90;;;16.35;73.04;100276.69;5059763;28;20627;-74
2021/10/20 09:48:14;;;;;;;8.35;3.00;;;16.00;99.90;;;16.37;72.75;100258.97;5071347;28;20203;-71
2021/10/20 09:50:53;;;;;;;8.88;3.05;;;16.00;99.90;;;16.39;72.52;100262.34;5066540;28;20619;-67
2021/10/20 09:53:22;;;;;;;8.90;3.08;;;16.10;99.90;;;16.39;72.58;100272.06;5058922;28;20271;-73
2021/10/20 09:55:49;;;;;;;9.48;3.53;;;16.10;99.90;;;16.38;72.57;100291.50;5077452;28;20297;-71
2021/10/20 09:58:17;;;;;;;9.85;3.85;;;16.10;99.90;;;16.38;72.46;100291.50;5059604;28;20219;-73
2021/10/20 10:00:45;;;;;;;10.05;3.28;;;16.10;99.90;;;16.35;72.50;100287.25;5062327;28;20294;-70
2021/10/20 10:03:13;;;;;;;8.73;3.13;;;16.10;99.90;;;16.33;72.64;100289.16;5068356;28;20196;-75
2021/10/20 10:05:40;;;;;;;10.73;3.00;;;16.10;99.90;;;16.28;73.21;100284.19;5058805;28;20210;-70
2021/10/20 10:08:07;;;;;;;11.45;3.15;;;16.00;99.90;;;16.24;73.77;100272.13;5059282;28;20192;-69
2021/10/20 10:10:37;;;;;;;9.00;3.05;;;16.00;99.90;;;16.20;74.44;100280.38;5054821;28;20211;-70